Time;durP1;ratioP1;P1;durP2;ratioP2;P2;SDS_P1;SDS_P2;PMS_P1;PMS_P2;Temp;Humidity;BMP_temperature;BMP_pressure;BME280_temperature;BME280_humidity;BME280_pressure;Samples;Min_cycle;Max_cycle;Signal;HPM_P1;HPM_P2
2023/08/02 00:01:18;;;;;;;5.50;1.60;;;16.30;1.00;;;;;;5010431;28;20736;-69
2023/08/02 00:03:43;;;;;;;8.10;1.40;;;16.30;1.00;;;;;;5009964;28;20407;-69
2023/08/02 00:06:09;;;;;;;5.75;1.75;;;16.30;1.00;;;;;;5020301;28;20770;-69
2023/08/02 00:08:35;;;;;;;6.15;1.30;;;16.30;99.90;;;;;;5029458;28;20402;-68
2023/08/02 00:11:01;;;;;;;7.50;1.20;;;16.30;99.90;;;;;;5030175;28;20633;-69
2023/08/02 00:13:27;;;;;;;6.37;1.87;;;16.30;1.00;;;;;;5029598;28;20478;-69
2023/08/02 00:15:52;;;;;;;6.80;1.40;;;16.20;1.00;;;;;;5029608;28;21168;-69
2023/08/02 00:18:18;;;;;;;7.30;1.40;;;16.20;99.90;;;;;;5029518;28;20444;-69
2023/08/02 00:20:44;;;;;;;6.33;1.23;;;16.20;99.90;;;;;;5011932;28;20797;-69
2023/08/02 00:23:10;;;;;;;6.10;1.30;;;16.10;99.90;;;;;;5009570;28;20447;-69
2023/08/02 00:25:35;;;;;;;6.20;1.60;;;16.10;1.00;;;;;;5009935;28;20600;-69
2023/08/02 00:28:01;;;;;;;5.90;1.40;;;16.10;1.00;;;;;;4992370;28;20567;-69
2023/08/02 00:30:29;;;;;;;5.10;1.50;;;16.20;1.00;;;;;;5009168;28;20424;-69
2023/08/02 00:32:54;;;;;;;5.75;1.40;;;16.20;99.90;;;;;;5009665;28;20423;-69
2023/08/02 00:35:20;;;;;;;5.23;1.40;;;16.30;99.90;;;;;;5009967;28;20484;-69
2023/08/02 00:37:46;;;;;;;5.32;1.35;;;16.30;1.00;;;;;;5008862;28;21032;-69
2023/08/02 00:40:12;;;;;;;6.53;1.40;;;16.30;3.60;;;;;;5010019;28;20393;-69
2023/08/02 00:42:37;;;;;;;6.20;1.10;;;16.40;1.00;;;;;;5027526;28;20834;-69
2023/08/02 00:45:03;;;;;;;5.00;1.30;;;16.30;1.00;;;;;;5029641;28;20398;-69
2023/08/02 00:47:34;;;;;;;5.90;1.42;;;16.20;99.90;;;;;;5030342;28;20402;-69
2023/08/02 00:50:03;;;;;;;6.68;2.00;;;16.20;99.90;;;;;;5031112;28;20395;-68
2023/08/02 00:52:30;;;;;;;5.68;1.30;;;16.20;99.90;;;;;;5029552;28;20438;-68
2023/08/02 00:54:56;;;;;;;5.47;1.50;;;16.20;99.90;;;;;;5022484;28;20404;-68
2023/08/02 00:57:21;;;;;;;6.00;1.48;;;16.20;1.00;;;;;;5009643;28;20423;-68
2023/08/02 00:59:48;;;;;;;6.33;1.53;;;16.30;99.90;;;;;;5027352;28;20395;-69
2023/08/02 01:02:14;;;;;;;7.05;1.20;;;16.40;82.70;;;;;;5029481;28;20383;-69
2023/08/02 01:04:40;;;;;;;6.10;1.80;;;16.30;1.00;;;;;;5029357;28;20516;-69
2023/08/02 01:07:36;;;;;;;5.35;1.20;;;16.30;99.90;;;;;;5029007;28;20403;-69
2023/08/02 01:10:12;;;;;;;5.10;1.00;;;16.30;96.30;;;;;;5029722;28;20387;-69
2023/08/02 01:12:42;;;;;;;5.05;1.30;;;16.30;99.90;;;;;;5029002;28;20489;-69
2023/08/02 01:15:09;;;;;;;5.75;1.25;;;16.20;99.90;;;;;;5024136;28;20424;-68
2023/08/02 01:17:35;;;;;;;5.90;1.67;;;16.20;99.90;;;;;;5008801;28;20408;-69
2023/08/02 01:20:07;;;;;;;6.40;1.40;;;16.30;99.90;;;;;;5021324;28;20399;-68
2023/08/02 01:22:33;;;;;;;4.90;1.00;;;16.30;99.90;;;;;;5031650;28;20437;-69
2023/08/02 01:25:38;;;;;;;9.05;1.70;;;16.40;76.00;;;;;;5013984;28;20819;-68
2023/08/02 01:28:09;;;;;;;6.97;1.40;;;16.40;99.90;;;;;;5028567;28;20411;-69
2023/08/02 01:30:38;;;;;;;5.45;1.50;;;16.40;99.90;;;;;;5029193;28;20422;-69
2023/08/02 01:33:05;;;;;;;5.80;1.30;;;16.30;1.00;;;;;;5028665;28;20506;-69
2023/08/02 01:35:31;;;;;;;4.78;1.05;;;16.30;1.00;;;;;;5028976;28;20427;-69
2023/08/02 01:37:57;;;;;;;5.00;1.35;;;16.40;1.00;;;;;;5028499;28;20767;-69
2023/08/02 01:40:23;;;;;;;5.47;1.60;;;16.40;1.00;;;;;;5028799;28;20396;-69
2023/08/02 01:42:48;;;;;;;6.60;1.37;;;16.40;1.00;;;;;;5028592;28;20397;-69
2023/08/02 01:45:14;;;;;;;5.03;1.20;;;16.40;1.00;;;;;;5028327;28;20457;-69
2023/08/02 01:47:39;;;;;;;6.70;1.60;;;16.40;1.00;;;;;;5028843;28;20490;-68
2023/08/02 01:50:05;;;;;;;7.50;1.50;;;16.50;1.00;;;;;;5029953;28;20399;-69
2023/08/02 01:52:31;;;;;;;5.80;1.42;;;16.40;1.00;;;;;;5034343;28;20477;-68
2023/08/02 01:54:57;;;;;;;5.30;1.45;;;16.40;1.00;;;;;;5032520;28;20398;-69
2023/08/02 01:57:22;;;;;;;4.63;1.00;;;16.50;1.00;;;;;;5032275;28;20410;-69
2023/08/02 01:59:48;;;;;;;5.60;1.40;;;16.50;1.00;;;;;;5032674;28;20478;-69
2023/08/02 02:02:13;;;;;;;5.50;1.30;;;16.50;13.90;;;;;;5032270;28;20394;-69
2023/08/02 02:04:39;;;;;;;5.60;1.30;;;16.40;1.00;;;;;;5031888;28;20456;-68
2023/08/02 02:07:04;;;;;;;5.45;1.30;;;16.50;39.70;;;;;;5012965;28;20391;-68
2023/08/02 02:09:30;;;;;;;5.30;1.40;;;16.40;99.90;;;;;;5032008;28;20413;-69
2023/08/02 02:11:56;;;;;;;5.30;1.40;;;16.40;99.90;;;;;;5031858;28;20418;-69
2023/08/02 02:14:21;;;;;;;6.07;1.30;;;16.50;99.90;;;;;;5032294;28;20398;-69
2023/08/02 02:16:47;;;;;;;8.30;1.67;;;16.50;73.20;;;;;;5031893;28;20948;-69
2023/08/02 02:19:12;;;;;;;5.00;1.30;;;16.40;99.90;;;;;;5027115;28;20950;-69
2023/08/02 02:21:38;;;;;;;5.50;1.73;;;16.30;99.90;;;;;;5012462;28;20401;-69
2023/08/02 02:24:04;;;;;;;6.33;1.40;;;16.30;99.90;;;;;;5012675;28;20392;-69
2023/08/02 02:26:29;;;;;;;5.38;1.75;;;16.30;99.90;;;;;;5012646;28;20439;-69
2023/08/02 02:28:55;;;;;;;7.73;2.00;;;16.40;99.90;;;;;;5014803;28;20410;-69
2023/08/02 02:31:20;;;;;;;5.50;1.40;;;16.40;99.90;;;;;;5030811;28;20510;-69
2023/08/02 02:33:47;;;;;;;6.05;1.25;;;16.50;99.90;;;;;;5031496;28;20414;-69
2023/08/02 02:36:13;;;;;;;5.50;1.60;;;16.50;99.90;;;;;;5032188;28;20387;-69
2023/08/02 02:38:38;;;;;;;10.30;1.30;;;16.40;99.90;;;;;;5033865;28;20383;-68
2023/08/02 02:41:04;;;;;;;7.50;1.30;;;16.50;99.90;;;;;;5031283;28;20387;-68
2023/08/02 02:43:30;;;;;;;6.70;1.38;;;16.60;99.90;;;;;;5031619;28;20394;-69
2023/08/02 02:45:55;;;;;;;6.30;1.20;;;16.60;99.90;;;;;;5030898;28;20387;-69
2023/08/02 02:48:21;;;;;;;7.40;1.50;;;16.70;99.90;;;;;;5031289;28;20379;-69
2023/08/02 02:50:46;;;;;;;5.53;1.40;;;16.80;1.00;;;;;;5031544;28;20422;-69
2023/08/02 02:53:12;;;;;;;5.57;1.40;;;17.00;1.00;;;;;;5031053;28;20809;-69
2023/08/02 02:55:38;;;;;;;5.47;1.30;;;17.00;99.90;;;;;;5031334;28;20391;-69
2023/08/02 02:58:03;;;;;;;7.90;1.60;;;17.10;99.90;;;;;;5030779;28;20403;-69
2023/08/02 03:00:31;;;;;;;6.37;1.40;;;17.10;99.90;;;;;;5031241;28;20871;-68
2023/08/02 03:02:57;;;;;;;5.38;1.38;;;17.10;84.70;;;;;;5031236;28;20395;-69
2023/08/02 03:05:22;;;;;;;5.20;1.40;;;17.20;99.90;;;;;;5031223;28;20390;-69
2023/08/02 03:07:48;;;;;;;5.20;1.20;;;17.10;99.90;;;;;;5031189;28;20802;-69
2023/08/02 03:10:14;;;;;;;6.13;1.60;;;17.10;99.90;;;;;;5032200;28;20387;-69
2023/08/02 03:12:39;;;;;;;5.38;1.40;;;17.10;99.90;;;;;;5031933;28;20900;-68
2023/08/02 03:15:06;;;;;;;5.25;1.45;;;17.20;1.00;;;;;;5030714;28;20886;-69
2023/08/02 03:17:31;;;;;;;6.45;1.60;;;17.10;99.90;;;;;;5029660;28;20406;-68
2023/08/02 03:19:57;;;;;;;4.90;1.20;;;17.10;1.00;;;;;;5020273;28;20405;-68
2023/08/02 03:22:22;;;;;;;5.50;1.40;;;17.20;1.00;;;;;;5011218;28;20388;-69
2023/08/02 03:24:48;;;;;;;5.88;1.70;;;17.30;99.90;;;;;;5012209;28;20416;-69
2023/08/02 03:27:14;;;;;;;10.10;1.50;;;17.30;1.00;;;;;;5012670;28;20531;-69
2023/08/02 03:29:39;;;;;;;6.37;1.70;;;17.40;1.00;;;;;;5011808;28;20447;-69
2023/08/02 03:32:05;;;;;;;5.37;1.30;;;17.30;1.00;;;;;;4995832;28;20428;-69
2023/08/02 03:34:31;;;;;;;5.80;1.52;;;17.30;99.90;;;;;;5010817;28;20515;-69
2023/08/02 03:36:56;;;;;;;5.10;1.30;;;17.30;1.00;;;;;;5010480;28;20393;-69
2023/08/02 03:39:26;;;;;;;5.13;1.40;;;17.30;1.00;;;;;;5009768;28;20425;-68
2023/08/02 03:41:53;;;;;;;6.22;1.60;;;17.30;99.90;;;;;;5022086;28;20751;-69
2023/08/02 03:44:18;;;;;;;5.43;1.40;;;17.40;99.90;;;;;;5029475;28;20395;-69
2023/08/02 03:46:44;;;;;;;5.17;1.40;;;17.50;1.00;;;;;;5030119;28;20410;-69
2023/08/02 03:49:10;;;;;;;6.57;1.10;;;17.50;99.90;;;;;;5028579;28;20403;-69
2023/08/02 03:51:35;;;;;;;7.25;2.00;;;17.30;1.00;;;;;;5029144;28;20457;-69
2023/08/02 03:54:03;;;;;;;5.00;1.27;;;17.30;4.90;;;;;;5029749;28;20426;-69
2023/08/02 03:56:30;;;;;;;7.00;1.43;;;17.40;1.00;;;;;;5029200;28;20387;-69
2023/08/02 03:58:55;;;;;;;7.43;1.60;;;17.40;1.00;;;;;;5029309;28;20387;-69
2023/08/02 04:01:21;;;;;;;6.65;1.52;;;17.40;1.00;;;;;;5029201;28;20425;-69
2023/08/02 04:03:47;;;;;;;4.82;1.10;;;17.50;99.90;;;;;;5028715;28;20481;-68
2023/08/02 04:06:13;;;;;;;4.73;1.00;;;17.40;1.00;;;;;;5014260;28;20407;-68
2023/08/02 04:08:39;;;;;;;5.18;1.40;;;17.50;99.90;;;;;;5009057;28;20416;-68
2023/08/02 04:11:05;;;;;;;7.30;2.00;;;17.50;99.90;;;;;;5009610;28;20424;-68
2023/08/02 04:13:31;;;;;;;5.80;1.20;;;17.50;81.80;;;;;;5008199;28;20461;-68
2023/08/02 04:15:57;;;;;;;5.40;1.20;;;17.50;1.00;;;;;;5016452;28;20395;-69
2023/08/02 04:18:22;;;;;;;5.40;1.27;;;17.50;99.90;;;;;;5037690;28;20911;-69
2023/08/02 04:20:48;;;;;;;6.43;1.60;;;17.50;1.00;;;;;;5030251;28;20414;-69
2023/08/02 04:23:13;;;;;;;5.40;1.52;;;17.60;99.90;;;;;;5034588;28;20402;-69
2023/08/02 04:25:39;;;;;;;6.93;1.40;;;17.60;99.90;;;;;;5047780;28;20434;-69
2023/08/02 04:28:06;;;;;;;6.77;1.80;;;17.60;99.90;;;;;;5048218;28;21155;-69
2023/08/02 04:30:32;;;;;;;5.50;1.20;;;17.60;99.90;;;;;;5048799;28;20772;-69
2023/08/02 04:32:58;;;;;;;5.20;1.13;;;17.60;99.90;;;;;;5041408;28;20688;-69
2023/08/02 04:35:24;;;;;;;5.93;1.40;;;17.50;1.00;;;;;;5028574;28;20394;-69
2023/08/02 04:37:49;;;;;;;8.20;1.37;;;17.50;1.00;;;;;;5028549;28;20762;-69
2023/08/02 04:40:15;;;;;;;6.15;1.50;;;17.50;99.90;;;;;;5027153;28;20410;-69
2023/08/02 04:42:41;;;;;;;5.65;1.50;;;17.40;1.00;;;;;;5028348;28;20460;-69
2023/08/02 04:45:08;;;;;;;5.00;1.30;;;17.30;1.00;;;;;;5028391;28;20458;-69
2023/08/02 04:47:33;;;;;;;5.80;1.30;;;17.20;1.00;;;;;;5028771;28;20395;-69
2023/08/02 04:49:59;;;;;;;5.53;1.50;;;17.20;52.30;;;;;;5026569;28;20398;-69
2023/08/02 04:52:25;;;;;;;8.48;2.00;;;17.20;99.90;;;;;;5028405;28;20427;-69
2023/08/02 04:54:51;;;;;;;5.50;1.33;;;17.20;99.90;;;;;;5028677;28;20502;-69
2023/08/02 04:57:16;;;;;;;5.50;1.50;;;17.20;99.90;;;;;;5028132;28;20406;-69
2023/08/02 04:59:42;;;;;;;5.27;1.20;;;17.20;99.90;;;;;;5028229;28;20396;-68
2023/08/02 05:02:07;;;;;;;5.90;1.50;;;17.10;99.90;;;;;;5028278;28;20403;-69
2023/08/02 05:04:33;;;;;;;6.18;1.80;;;16.90;1.00;;;;;;5034737;28;20391;-68
2023/08/02 05:09:34;;;;;;;6.50;2.00;;;16.90;1.00;;;;;;4889778;23;20818;-68
2023/08/02 05:11:59;;;;;;;5.20;1.30;;;16.80;1.00;;;;;;5027315;28;20438;-68
2023/08/02 05:14:27;;;;;;;5.57;1.50;;;16.80;1.00;;;;;;5027859;28;20451;-69
2023/08/02 05:16:53;;;;;;;10.05;1.60;;;16.70;1.00;;;;;;5025966;28;20403;-69
2023/08/02 05:19:18;;;;;;;6.50;1.60;;;16.70;1.00;;;;;;5023774;28;20402;-69
2023/08/02 05:21:44;;;;;;;5.50;1.57;;;16.70;1.00;;;;;;5019516;28;20392;-69
2023/08/02 05:24:09;;;;;;;7.67;2.13;;;16.60;1.00;;;;;;5017291;28;20405;-69
2023/08/02 05:26:35;;;;;;;5.70;1.63;;;16.60;1.00;;;;;;5017816;28;20389;-69
2023/08/02 05:29:00;;;;;;;5.60;1.73;;;16.50;1.00;;;;;;5001769;28;20397;-69
2023/08/02 05:31:26;;;;;;;5.97;1.80;;;16.50;1.00;;;;;;5021809;28;20485;-69
2023/08/02 05:33:51;;;;;;;12.70;1.90;;;16.60;1.00;;;;;;5021990;28;20548;-69
2023/08/02 05:36:17;;;;;;;9.53;1.70;;;16.60;1.00;;;;;;5015942;28;20401;-69
2023/08/02 05:38:43;;;;;;;6.30;1.60;;;16.60;1.00;;;;;;5008869;28;20381;-69
2023/08/02 05:41:08;;;;;;;6.43;1.73;;;16.60;1.00;;;;;;5008997;28;20400;-69
2023/08/02 05:43:34;;;;;;;5.70;1.70;;;16.60;1.00;;;;;;5009030;28;20412;-69
2023/08/02 05:45:59;;;;;;;7.05;1.90;;;16.70;1.00;;;;;;5009033;28;20384;-69
2023/08/02 05:48:25;;;;;;;7.07;2.40;;;16.60;1.00;;;;;;5023009;28;20456;-69
2023/08/02 05:50:51;;;;;;;7.50;1.70;;;16.60;1.00;;;;;;5017500;28;20475;-69
2023/08/02 05:53:16;;;;;;;5.40;1.58;;;16.60;1.00;;;;;;5023989;28;20483;-67
2023/08/02 05:55:42;;;;;;;6.53;1.27;;;16.70;1.00;;;;;;5025191;28;20403;-68
2023/08/02 05:58:08;;;;;;;5.90;2.10;;;16.60;1.00;;;;;;5020724;28;20387;-67
2023/08/02 06:00:33;;;;;;;6.20;1.63;;;16.50;18.80;;;;;;5017502;28;20483;-67
2023/08/02 06:02:59;;;;;;;7.40;2.40;;;16.60;1.00;;;;;;5018087;28;20484;-67
2023/08/02 06:05:25;;;;;;;6.10;1.70;;;16.70;1.00;;;;;;5021741;28;20461;-67
2023/08/02 06:07:51;;;;;;;7.10;1.92;;;16.80;1.00;;;;;;5020179;28;20486;-67
2023/08/02 06:10:17;;;;;;;7.95;2.20;;;16.80;1.00;;;;;;5014340;28;20503;-67
2023/08/02 06:12:43;;;;;;;6.10;1.83;;;16.80;1.00;;;;;;5008682;28;20499;-68
2023/08/02 06:15:09;;;;;;;9.10;1.83;;;16.80;1.00;;;;;;5008893;28;20400;-69
2023/08/02 06:17:36;;;;;;;7.30;1.92;;;16.80;1.00;;;;;;5009142;28;20401;-68
2023/08/02 06:20:01;;;;;;;6.82;2.08;;;16.80;1.00;;;;;;5008883;28;20391;-68
2023/08/02 06:22:27;;;;;;;8.10;2.00;;;16.70;1.00;;;;;;5017621;28;20387;-68
2023/08/02 06:24:53;;;;;;;5.97;1.63;;;16.70;1.00;;;;;;5027710;28;20456;-68
2023/08/02 06:27:18;;;;;;;8.50;2.03;;;16.70;6.70;;;;;;5023483;28;20400;-68
2023/08/02 06:29:44;;;;;;;6.30;1.88;;;16.70;23.10;;;;;;5022513;28;20991;-68
2023/08/02 06:32:09;;;;;;;6.70;2.40;;;16.50;32.70;;;;;;5022072;28;20958;-68
2023/08/02 06:34:35;;;;;;;6.93;1.63;;;16.40;59.80;;;;;;5009340;28;20395;-67
2023/08/02 06:37:00;;;;;;;6.33;1.90;;;16.30;99.90;;;;;;5010322;28;20694;-68
2023/08/02 06:39:26;;;;;;;6.97;2.03;;;16.30;99.90;;;;;;5021882;28;20461;-68
2023/08/02 06:41:51;;;;;;;8.07;2.20;;;16.30;99.90;;;;;;5031149;28;20402;-68
2023/08/02 06:44:18;;;;;;;7.70;2.10;;;16.30;99.90;;;;;;5025703;28;20403;-68
2023/08/02 06:46:43;;;;;;;6.88;1.90;;;16.30;99.90;;;;;;5031853;28;20403;-69
2023/08/02 06:49:09;;;;;;;7.03;2.07;;;16.30;99.90;;;;;;5031677;28;20898;-68
2023/08/02 06:51:34;;;;;;;4.90;1.43;;;16.40;99.90;;;;;;5031936;28;20595;-68
2023/08/02 06:54:00;;;;;;;5.70;1.77;;;16.40;99.90;;;;;;4998687;28;20766;-68
2023/08/02 06:56:25;;;;;;;5.80;2.00;;;16.50;99.90;;;;;;5030935;28;20392;-69
2023/08/02 06:58:51;;;;;;;7.00;2.05;;;16.60;99.90;;;;;;5031454;28;20391;-68
2023/08/02 07:01:18;;;;;;;5.30;1.70;;;16.70;99.90;;;;;;5031530;28;20746;-69
2023/08/02 07:03:45;;;;;;;6.70;2.40;;;16.80;99.90;;;;;;5027253;28;20403;-69
2023/08/02 07:06:12;;;;;;;6.47;2.20;;;16.90;99.90;;;;;;5021316;28;20415;-69
2023/08/02 07:08:38;;;;;;;7.43;1.65;;;16.90;99.90;;;;;;5030425;28;20407;-69
2023/08/02 07:11:04;;;;;;;6.28;2.22;;;16.90;99.90;;;;;;5030572;28;20565;-69
2023/08/02 07:13:30;;;;;;;5.73;2.30;;;16.90;99.90;;;;;;5024542;28;20433;-68
2023/08/02 07:15:56;;;;;;;7.50;2.25;;;17.00;99.90;;;;;;5031872;28;20391;-68
2023/08/02 07:18:22;;;;;;;7.30;2.00;;;17.10;99.90;;;;;;5030966;28;20888;-68
2023/08/02 07:20:47;;;;;;;7.03;2.58;;;17.10;99.90;;;;;;5031225;28;20411;-68
2023/08/02 07:23:13;;;;;;;6.30;1.93;;;17.10;99.90;;;;;;5031358;28;20379;-68
2023/08/02 07:25:38;;;;;;;6.27;2.40;;;17.10;99.90;;;;;;5030926;28;20454;-68
2023/08/02 07:28:04;;;;;;;8.27;2.57;;;17.20;99.90;;;;;;5030419;28;20865;-68
2023/08/02 07:30:29;;;;;;;7.53;2.40;;;17.30;99.90;;;;;;5030750;28;20407;-68
2023/08/02 07:32:55;;;;;;;6.22;2.20;;;17.50;99.90;;;;;;5030430;28;20403;-68
2023/08/02 07:35:21;;;;;;;7.22;2.50;;;17.60;95.10;;;;;;5030337;28;20431;-68
2023/08/02 07:37:46;;;;;;;8.13;2.70;;;17.70;72.50;;;;;;5031083;28;20399;-68
2023/08/02 07:40:13;;;;;;;6.43;2.30;;;17.80;28.70;;;;;;5030379;28;20744;-68
2023/08/02 07:42:39;;;;;;;6.32;1.73;;;17.90;20.90;;;;;;5030474;28;20800;-68
2023/08/02 07:45:08;;;;;;;6.60;1.90;;;17.80;3.70;;;;;;5030494;28;20387;-68
2023/08/02 07:47:37;;;;;;;7.45;2.40;;;17.90;19.40;;;;;;5029280;28;20493;-69
2023/08/02 07:50:03;;;;;;;7.50;2.13;;;18.10;1.00;;;;;;5029869;28;20886;-68
2023/08/02 07:52:29;;;;;;;6.55;2.13;;;18.30;1.00;;;;;;5030157;28;20429;-69
2023/08/02 07:54:55;;;;;;;7.30;2.15;;;18.30;1.00;;;;;;5030171;28;20424;-69
2023/08/02 07:57:25;;;;;;;7.03;2.30;;;18.30;1.00;;;;;;5030270;28;20869;-69
2023/08/02 07:59:51;;;;;;;6.90;2.30;;;18.40;1.00;;;;;;5030023;28;20383;-69
2023/08/02 08:02:17;;;;;;;7.10;2.50;;;18.40;1.00;;;;;;5030302;28;20387;-69
2023/08/02 08:04:43;;;;;;;6.40;2.45;;;18.40;1.00;;;;;;5004519;28;21009;-69
2023/08/02 08:07:09;;;;;;;6.72;2.20;;;18.30;1.00;;;;;;5030277;28;20413;-69
2023/08/02 08:09:35;;;;;;;6.00;1.90;;;18.20;38.60;;;;;;5029788;28;20442;-69
2023/08/02 08:12:05;;;;;;;5.72;1.60;;;18.00;67.90;;;;;;5029538;28;20430;-69
2023/08/02 08:14:31;;;;;;;5.78;2.00;;;18.00;90.00;;;;;;5013448;28;20389;-69
2023/08/02 08:16:58;;;;;;;6.95;2.00;;;18.00;96.40;;;;;;5010075;28;20383;-69
2023/08/02 08:19:24;;;;;;;5.60;1.70;;;17.90;99.90;;;;;;5009588;28;20389;-69
2023/08/02 08:21:50;;;;;;;7.60;2.20;;;17.90;99.90;;;;;;5029815;28;20384;-70
2023/08/02 08:24:16;;;;;;;6.70;1.70;;;17.90;99.90;;;;;;5032088;28;20422;-69
2023/08/02 08:26:41;;;;;;;6.85;2.15;;;17.90;99.90;;;;;;5029876;28;20402;-69
2023/08/02 08:29:07;;;;;;;6.22;1.77;;;18.00;99.90;;;;;;5032743;28;20379;-69
2023/08/02 08:31:33;;;;;;;7.07;2.10;;;18.00;99.90;;;;;;5029339;28;20493;-69
2023/08/02 08:33:58;;;;;;;7.13;1.98;;;18.00;99.90;;;;;;5029014;28;20403;-69
2023/08/02 08:36:26;;;;;;;7.43;2.00;;;18.00;99.90;;;;;;5029610;28;20413;-69
2023/08/02 08:38:51;;;;;;;6.75;2.13;;;18.10;99.90;;;;;;5010245;28;20911;-69
2023/08/02 08:41:17;;;;;;;5.97;1.97;;;18.20;99.90;;;;;;5010063;28;20499;-69
2023/08/02 08:43:43;;;;;;;8.52;1.90;;;18.10;97.10;;;;;;5009783;28;20539;-69
2023/08/02 08:46:11;;;;;;;5.83;2.03;;;18.10;99.90;;;;;;5009470;28;20381;-69
2023/08/02 08:48:38;;;;;;;7.03;2.00;;;18.10;99.90;;;;;;5021890;28;20727;-69
2023/08/02 08:51:05;;;;;;;6.80;2.03;;;18.20;99.90;;;;;;5029471;28;20805;-69
2023/08/02 08:53:35;;;;;;;5.70;1.98;;;18.40;90.80;;;;;;5028841;28;20458;-69
2023/08/02 08:56:02;;;;;;;6.43;2.30;;;18.30;75.10;;;;;;5024094;28;20389;-69
2023/08/02 08:58:28;;;;;;;6.20;2.30;;;18.30;49.50;;;;;;5026196;28;20403;-69
2023/08/02 09:00:56;;;;;;;6.05;2.13;;;18.40;60.70;;;;;;5016607;28;20400;-69
2023/08/02 09:03:22;;;;;;;6.15;1.70;;;18.40;42.00;;;;;;5026769;28;20398;-69
2023/08/02 09:05:49;;;;;;;6.13;1.80;;;18.40;59.10;;;;;;5024709;28;20895;-69
2023/08/02 09:08:16;;;;;;;6.63;1.80;;;18.30;65.50;;;;;;5011982;28;20640;-69
2023/08/02 09:10:42;;;;;;;8.40;1.70;;;18.30;49.70;;;;;;5009247;28;20467;-68
2023/08/02 09:13:21;;;;;;;7.03;2.17;;;18.30;55.20;;;;;;5014030;28;20422;-68
2023/08/02 09:16:08;;;;;;;6.78;2.80;;;18.20;87.80;;;;;;5028825;28;20474;-69
2023/08/02 09:18:47;;;;;;;6.68;2.08;;;18.30;94.50;;;;;;5023282;28;20402;-68
2023/08/02 09:21:21;;;;;;;5.50;1.95;;;18.20;99.90;;;;;;5019044;28;20441;-69
2023/08/02 09:23:58;;;;;;;6.18;2.00;;;18.30;99.90;;;;;;5011288;28;20942;-69
2023/08/02 09:26:23;;;;;;;6.60;2.10;;;18.30;99.90;;;;;;5026417;28;20445;-69
2023/08/02 09:29:04;;;;;;;6.47;1.90;;;18.30;99.90;;;;;;5015719;28;20405;-68
2023/08/02 09:31:34;;;;;;;6.45;1.80;;;18.20;99.90;;;;;;5026148;28;20465;-68
2023/08/02 09:34:01;;;;;;;6.03;1.90;;;18.30;99.90;;;;;;5028648;28;20391;-69
2023/08/02 09:36:26;;;;;;;5.68;1.50;;;18.40;99.90;;;;;;5027268;28;20883;-68
2023/08/02 09:39:04;;;;;;;6.70;1.70;;;18.40;99.90;;;;;;5029702;28;20415;-68
2023/08/02 09:41:30;;;;;;;5.80;1.48;;;18.50;99.90;;;;;;5028573;28;20573;-68
2023/08/02 09:43:56;;;;;;;6.45;2.10;;;18.50;99.90;;;;;;5027180;28;20414;-69
2023/08/02 09:46:35;;;;;;;6.00;1.75;;;18.60;99.90;;;;;;5027822;28;21166;-69
2023/08/02 09:49:15;;;;;;;5.50;1.80;;;18.60;99.90;;;;;;5027946;28;20410;-69
2023/08/02 09:51:42;;;;;;;7.72;2.40;;;18.70;99.90;;;;;;5028359;28;20503;-68
2023/08/02 09:54:09;;;;;;;5.70;1.75;;;18.70;97.30;;;;;;5027746;28;20446;-68
2023/08/02 09:56:37;;;;;;;7.70;2.30;;;18.80;98.00;;;;;;5028031;28;20395;-68
2023/08/02 09:59:04;;;;;;;6.80;1.70;;;18.90;78.60;;;;;;5027909;28;20452;-68
2023/08/02 10:01:31;;;;;;;7.35;2.58;;;18.80;73.60;;;;;;5028027;28;20463;-68
2023/08/02 10:03:59;;;;;;;6.43;2.15;;;18.90;91.90;;;;;;5026998;28;20411;-69
2023/08/02 10:06:50;;;;;;;9.35;2.90;;;19.00;86.00;;;;;;5027543;28;20391;-69
2023/08/02 10:09:28;;;;;;;6.65;2.45;;;19.30;39.30;;;;;;5016678;28;20418;-69
2023/08/02 10:12:17;;;;;;;6.68;2.22;;;19.40;22.60;;;;;;5030967;28;20522;-69
2023/08/02 10:14:42;;;;;;;8.65;2.30;;;19.60;1.00;;;;;;5030878;28;20406;-69
2023/08/02 10:17:09;;;;;;;7.43;2.70;;;19.70;1.00;;;;;;5025775;28;20415;-68
2023/08/02 10:19:35;;;;;;;7.43;2.00;;;19.50;1.00;;;;;;5021599;28;20398;-68
2023/08/02 10:22:03;;;;;;;8.80;2.63;;;19.70;1.00;;;;;;5014104;28;20387;-68
2023/08/02 10:24:29;;;;;;;6.50;1.80;;;19.90;1.00;;;;;;5031777;28;20394;-68
2023/08/02 10:27:01;;;;;;;6.55;1.83;;;20.00;1.00;;;;;;5022770;28;20408;-68
2023/08/02 10:29:29;;;;;;;6.97;2.15;;;20.20;1.00;;;;;;5028982;28;20398;-68
2023/08/02 10:31:54;;;;;;;7.40;2.58;;;20.40;1.00;;;;;;5030997;28;20419;-68
2023/08/02 10:34:35;;;;;;;7.38;2.30;;;20.70;1.00;;;;;;5011322;28;20500;-68
2023/08/02 10:37:01;;;;;;;7.20;2.40;;;20.90;1.00;;;;;;5011640;28;20534;-67
2023/08/02 10:39:58;;;;;;;8.73;2.30;;;20.80;1.00;;;;;;5011780;28;20799;-68
2023/08/02 10:42:30;;;;;;;5.90;2.03;;;20.50;1.00;;;;;;4951836;28;20412;-69
2023/08/02 10:44:56;;;;;;;7.53;2.65;;;20.30;1.00;;;;;;5029998;28;20448;-69
2023/08/02 10:47:34;;;;;;;7.93;2.50;;;20.30;1.00;;;;;;5030149;28;20411;-69
2023/08/02 10:50:01;;;;;;;9.77;3.30;;;20.30;1.00;;;;;;5027141;28;20501;-69
2023/08/02 10:52:35;;;;;;;8.45;2.25;;;20.30;1.00;;;;;;5030759;28;20425;-68
2023/08/02 10:55:18;;;;;;;6.00;2.10;;;20.20;7.70;;;;;;5030002;28;20749;-69
2023/08/02 10:57:55;;;;;;;6.60;2.25;;;20.20;21.10;;;;;;5030874;28;20490;-68
2023/08/02 11:00:25;;;;;;;6.30;1.98;;;20.20;21.60;;;;;;5029787;28;20391;-69
2023/08/02 11:02:52;;;;;;;7.30;2.60;;;20.20;42.60;;;;;;5031108;28;20405;-69
2023/08/02 11:05:40;;;;;;;7.63;2.60;;;20.40;23.90;;;;;;5030932;28;20769;-69
2023/08/02 11:08:09;;;;;;;8.02;2.70;;;20.60;1.00;;;;;;5031413;28;20478;-69
2023/08/02 11:10:54;;;;;;;6.18;1.92;;;20.80;1.00;;;;;;5031971;28;20427;-69
2023/08/02 11:13:22;;;;;;;8.73;2.60;;;20.70;1.00;;;;;;5031622;28;20387;-69
2023/08/02 11:16:00;;;;;;;7.50;2.50;;;20.70;1.00;;;;;;5025429;28;20499;-68
2023/08/02 11:18:25;;;;;;;6.57;2.30;;;20.80;1.00;;;;;;5029148;28;20412;-69
2023/08/02 11:20:51;;;;;;;6.50;2.43;;;20.90;1.00;;;;;;5019060;28;20409;-69
2023/08/02 11:23:27;;;;;;;7.87;2.53;;;20.80;1.00;;;;;;5016770;28;20409;-68
2023/08/02 11:26:10;;;;;;;9.70;2.80;;;20.80;1.00;;;;;;5020659;28;20398;-69
2023/08/02 11:28:43;;;;;;;6.68;2.55;;;20.90;1.00;;;;;;5021968;28;20396;-69
2023/08/02 11:31:10;;;;;;;9.95;3.15;;;20.80;1.00;;;;;;5011020;28;20520;-69
2023/08/02 11:33:38;;;;;;;7.93;2.60;;;20.90;1.00;;;;;;5018660;28;20422;-69
2023/08/02 11:36:04;;;;;;;7.20;2.45;;;20.80;1.00;;;;;;5028911;28;20987;-68
2023/08/02 11:38:30;;;;;;;6.88;2.35;;;20.80;1.00;;;;;;5029981;28;20413;-69
2023/08/02 11:40:57;;;;;;;9.50;2.70;;;20.80;1.00;;;;;;5031981;28;20402;-68
2023/08/02 11:43:36;;;;;;;7.28;2.63;;;20.80;1.00;;;;;;5029157;28;20461;-69
2023/08/02 11:46:21;;;;;;;7.90;2.80;;;20.90;1.00;;;;;;5028983;28;20473;-69
2023/08/02 11:48:47;;;;;;;7.22;2.50;;;21.00;1.00;;;;;;5031108;28;20506;-69
2023/08/02 11:51:15;;;;;;;7.73;2.60;;;21.10;1.00;;;;;;5030560;28;20473;-69
2023/08/02 11:53:50;;;;;;;6.90;2.20;;;21.20;1.00;;;;;;5012817;28;20399;-68
2023/08/02 11:56:16;;;;;;;9.73;2.63;;;21.50;1.00;;;;;;5030066;28;20422;-68
2023/08/02 11:58:44;;;;;;;6.20;2.00;;;21.40;1.00;;;;;;5028072;28;20446;-68
2023/08/02 12:01:12;;;;;;;6.70;2.20;;;21.40;1.00;;;;;;5028382;28;20417;-67
2023/08/02 12:03:38;;;;;;;6.88;2.40;;;21.30;1.00;;;;;;5026180;28;20417;-68
2023/08/02 12:06:03;;;;;;;6.70;2.28;;;21.60;1.00;;;;;;5030730;28;20402;-68
2023/08/02 12:08:29;;;;;;;7.17;2.43;;;21.60;1.00;;;;;;5029945;28;20482;-69
2023/08/02 12:10:55;;;;;;;7.50;2.50;;;21.60;1.00;;;;;;5025730;28;20496;-69
2023/08/02 12:13:20;;;;;;;6.28;2.25;;;21.90;1.00;;;;;;5021286;28;20892;-69
2023/08/02 12:15:59;;;;;;;7.05;1.88;;;22.00;1.00;;;;;;5023247;28;20449;-68
2023/08/02 12:18:25;;;;;;;6.28;1.90;;;22.20;99.90;;;;;;5021828;28;20392;-68
2023/08/02 12:20:50;;;;;;;5.70;1.60;;;22.30;99.90;;;;;;5009148;28;20484;-69
2023/08/02 12:23:35;;;;;;;6.23;2.17;;;22.40;1.00;;;;;;5009931;28;20670;-69
2023/08/02 12:26:01;;;;;;;6.28;1.85;;;22.60;1.00;;;;;;5009080;28;20752;-69
2023/08/02 12:28:43;;;;;;;7.13;1.90;;;22.70;99.90;;;;;;5015129;28;20708;-69
2023/08/02 12:31:09;;;;;;;7.50;1.75;;;22.90;99.90;;;;;;5028940;28;20468;-68
2023/08/02 12:33:34;;;;;;;5.67;1.47;;;23.30;99.90;;;;;;5015956;28;20399;-69
2023/08/02 12:36:00;;;;;;;7.13;2.17;;;23.70;99.90;;;;;;5027045;28;20431;-69
2023/08/02 12:38:29;;;;;;;5.90;1.70;;;24.10;99.90;;;;;;5027608;28;20949;-68
2023/08/02 12:41:00;;;;;;;6.00;1.52;;;24.30;1.00;;;;;;5028411;28;20411;-69
2023/08/02 12:43:27;;;;;;;5.38;1.60;;;23.90;99.90;;;;;;5028706;28;20810;-69
2023/08/02 12:45:53;;;;;;;7.50;2.20;;;24.00;1.00;;;;;;5028673;28;20874;-69
2023/08/02 12:48:19;;;;;;;6.10;2.00;;;24.10;99.90;;;;;;5028045;28;20861;-69
2023/08/02 12:50:45;;;;;;;5.90;1.80;;;24.00;1.00;;;;;;5028845;28;20415;-68
2023/08/02 12:53:14;;;;;;;6.15;1.80;;;24.00;99.90;;;;;;5013293;28;20938;-68
2023/08/02 12:55:40;;;;;;;7.97;2.30;;;23.90;1.00;;;;;;5028434;28;20379;-68